Time;durP1;ratioP1;P1;durP2;ratioP2;P2;SDS_P1;SDS_P2;PMS_P1;PMS_P2;Temp;Humidity;BMP_temperature;BMP_pressure;BME280_temperature;BME280_humidity;BME280_pressure;Samples;Min_cycle;Max_cycle;Signal;HPM_P1;HPM_P2
2023/04/03 00:01:26;;;;;;;4.40;3.78;;;4.60;99.90;;;;;;5031020;28;20338;-71
2023/04/03 00:04:12;;;;;;;4.70;2.80;;;4.50;99.90;;;;;;5029842;28;20226;-72
2023/04/03 00:06:58;;;;;;;3.80;2.75;;;4.50;99.90;;;;;;5045327;28;20303;-71
2023/04/03 00:09:45;;;;;;;3.67;2.80;;;4.40;99.90;;;;;;5030849;28;20211;-72
2023/04/03 00:12:30;;;;;;;3.83;2.15;;;4.30;99.90;;;;;;5028140;28;20599;-71
2023/04/03 00:15:16;;;;;;;4.15;2.40;;;4.30;99.90;;;;;;5039190;28;20219;-71
2023/04/03 00:18:02;;;;;;;6.60;2.60;;;4.40;99.90;;;;;;5031407;28;20211;-72
2023/04/03 00:20:48;;;;;;;9.70;2.80;;;4.40;99.90;;;;;;5019713;28;20255;-72
2023/04/03 00:23:33;;;;;;;4.47;2.53;;;4.60;99.90;;;;;;5029786;28;20277;-71
2023/04/03 00:26:21;;;;;;;6.93;2.70;;;4.70;99.90;;;;;;5030597;28;20712;-72
2023/04/03 00:29:06;;;;;;;4.05;2.50;;;4.70;99.90;;;;;;5026619;28;20230;-72
2023/04/03 00:31:52;;;;;;;4.28;2.72;;;4.70;99.90;;;;;;5030784;28;20251;-72
2023/04/03 00:34:38;;;;;;;6.55;3.03;;;4.70;99.90;;;;;;5036709;28;20332;-72
2023/04/03 00:37:23;;;;;;;8.15;2.38;;;4.70;99.90;;;;;;5036226;28;20333;-71
2023/04/03 00:40:11;;;;;;;3.80;2.40;;;4.70;99.90;;;;;;5027331;28;20208;-71
2023/04/03 00:43:00;;;;;;;2.25;1.90;;;4.70;99.90;;;;;;5027458;28;20226;-71
2023/04/03 00:45:47;;;;;;;4.45;2.10;;;4.70;99.90;;;;;;5033278;28;20191;-71
2023/04/03 00:48:35;;;;;;;5.43;2.75;;;4.60;99.90;;;;;;5031405;28;20204;-72
2023/04/03 00:51:25;;;;;;;2.88;2.35;;;4.50;99.90;;;;;;5035259;28;20343;-71
2023/04/03 00:54:11;;;;;;;4.95;2.40;;;4.50;99.90;;;;;;5036584;28;20200;-71
2023/04/03 00:56:59;;;;;;;2.75;2.00;;;4.40;99.90;;;;;;5032034;28;20285;-72
2023/04/03 00:59:51;;;;;;;3.97;2.58;;;4.30;99.90;;;;;;5027214;28;20679;-72
2023/04/03 01:02:37;;;;;;;6.55;2.60;;;4.30;99.90;;;;;;5027386;28;20222;-72
2023/04/03 01:05:23;;;;;;;3.67;2.40;;;4.20;99.90;;;;;;5039114;28;20319;-72
2023/04/03 01:08:09;;;;;;;3.55;2.42;;;4.10;99.90;;;;;;5046156;28;20253;-72
2023/04/03 01:10:55;;;;;;;6.43;2.65;;;4.10;99.90;;;;;;5029396;28;20306;-72
2023/04/03 01:13:41;;;;;;;3.75;2.85;;;4.10;99.90;;;;;;5042845;28;20219;-71
2023/04/03 01:16:30;;;;;;;4.70;3.13;;;4.00;99.90;;;;;;5028663;28;20270;-72
2023/04/03 01:19:18;;;;;;;4.57;2.90;;;4.00;99.90;;;;;;5028245;28;20736;-72
2023/04/03 01:22:17;;;;;;;3.08;2.63;;;3.80;99.90;;;;;;5027351;28;20756;-72
2023/04/03 01:25:02;;;;;;;4.57;2.92;;;3.80;99.90;;;;;;5043921;28;20227;-71
2023/04/03 01:27:48;;;;;;;7.13;3.42;;;3.80;99.90;;;;;;5048737;28;20277;-71
2023/04/03 01:30:38;;;;;;;5.57;3.63;;;3.80;99.90;;;;;;5036081;28;20204;-71
2023/04/03 01:33:25;;;;;;;5.35;3.58;;;3.70;99.90;;;;;;5024221;28;20370;-72
2023/04/03 01:36:14;;;;;;;2.83;2.53;;;3.80;99.90;;;;;;5027957;28;20203;-71
2023/04/03 01:39:01;;;;;;;4.10;3.00;;;3.80;99.90;;;;;;5019502;28;20211;-72
2023/04/03 01:41:46;;;;;;;6.93;3.25;;;3.80;99.90;;;;;;5032865;28;20227;-71
2023/04/03 01:44:32;;;;;;;6.22;3.20;;;3.80;99.90;;;;;;5034369;28;20228;-71
2023/04/03 01:47:18;;;;;;;4.55;3.00;;;3.80;99.90;;;;;;5043863;28;20348;-71
2023/04/03 01:50:05;;;;;;;6.40;3.50;;;3.80;99.90;;;;;;5021056;28;20736;-72
2023/04/03 01:52:50;;;;;;;5.95;2.72;;;3.70;99.90;;;;;;5028573;28;20600;-71
2023/04/03 01:55:36;;;;;;;5.05;3.58;;;3.60;99.90;;;;;;5035087;28;20204;-71
2023/04/03 01:58:22;;;;;;;5.55;3.05;;;3.70;99.90;;;;;;5034450;28;20338;-72
2023/04/03 02:01:07;;;;;;;3.60;3.20;;;3.70;99.90;;;;;;5024776;28;20571;-71
2023/04/03 02:03:53;;;;;;;8.48;3.72;;;3.70;99.90;;;;;;5019727;28;20215;-72
2023/04/03 02:06:40;;;;;;;4.85;3.60;;;3.60;99.90;;;;;;5026237;28;20339;-71
2023/04/03 02:09:26;;;;;;;4.63;3.40;;;3.50;99.90;;;;;;5026155;28;20269;-72
2023/04/03 02:12:12;;;;;;;5.85;3.63;;;3.50;99.90;;;;;;5032726;28;20346;-71
2023/04/03 02:14:57;;;;;;;5.15;3.72;;;3.40;99.90;;;;;;5038323;28;20574;-71
2023/04/03 02:17:43;;;;;;;5.28;3.92;;;3.50;99.90;;;;;;5022106;28;20331;-71
2023/04/03 02:20:28;;;;;;;5.55;3.88;;;3.50;99.90;;;;;;5029768;28;20315;-72
2023/04/03 02:23:16;;;;;;;6.40;3.88;;;3.50;99.90;;;;;;5021839;28;20222;-71
2023/04/03 02:26:10;;;;;;;5.53;3.53;;;3.50;99.90;;;;;;5035571;28;20339;-71
2023/04/03 02:28:56;;;;;;;6.22;3.42;;;3.60;99.90;;;;;;5027467;28;20204;-70
2023/04/03 02:31:42;;;;;;;9.68;3.63;;;3.60;99.90;;;;;;5026167;28;20209;-71
2023/04/03 02:34:27;;;;;;;11.88;4.35;;;3.50;99.90;;;;;;5028153;28;20203;-72
2023/04/03 02:37:13;;;;;;;5.68;3.30;;;3.50;99.90;;;;;;5026751;28;20212;-71
2023/04/03 02:40:00;;;;;;;5.68;3.80;;;3.50;99.90;;;;;;5033381;28;20327;-70
2023/04/03 02:42:46;;;;;;;4.63;3.60;;;3.50;99.90;;;;;;5027378;28;20235;-71
2023/04/03 02:45:31;;;;;;;6.90;3.72;;;3.50;99.90;;;;;;5028139;28;20217;-73
2023/04/03 02:48:17;;;;;;;16.40;4.22;;;3.40;99.90;;;;;;5028223;28;20204;-72
2023/04/03 02:51:03;;;;;;;5.10;4.03;;;3.40;99.90;;;;;;5030494;28;20227;-73
2023/04/03 02:53:49;;;;;;;9.60;3.53;;;3.40;99.90;;;;;;5034485;28;20222;-72
2023/04/03 02:56:36;;;;;;;4.75;3.45;;;3.50;99.90;;;;;;5033153;28;20209;-73
2023/04/03 02:59:21;;;;;;;6.20;3.85;;;3.50;99.90;;;;;;5028137;28;20616;-72
2023/04/03 03:02:08;;;;;;;4.32;3.03;;;3.50;99.90;;;;;;5036651;28;20604;-72
2023/04/03 03:04:53;;;;;;;7.45;3.55;;;3.40;99.90;;;;;;5042908;28;20233;-72
2023/04/03 03:07:39;;;;;;;6.65;3.58;;;3.50;99.90;;;;;;5031427;28;20214;-73
2023/04/03 03:10:25;;;;;;;6.63;3.60;;;3.50;99.90;;;;;;5044845;28;20537;-70
2023/04/03 03:13:12;;;;;;;4.85;3.33;;;3.40;99.90;;;;;;5042575;28;20239;-73
2023/04/03 03:15:58;;;;;;;4.57;3.70;;;3.40;99.90;;;;;;5039539;28;20281;-72
2023/04/03 03:18:43;;;;;;;5.55;3.58;;;3.50;99.90;;;;;;5034129;28;20567;-72
2023/04/03 03:21:29;;;;;;;6.45;3.80;;;3.50;99.90;;;;;;5043533;28;20207;-72
2023/04/03 03:24:16;;;;;;;4.85;3.40;;;3.50;99.90;;;;;;5050104;28;20605;-72
2023/04/03 03:27:01;;;;;;;5.43;3.22;;;3.60;99.90;;;;;;5035554;28;20283;-72
2023/04/03 03:29:48;;;;;;;3.85;3.28;;;3.50;99.90;;;;;;5044695;28;20712;-72
2023/04/03 03:32:34;;;;;;;6.50;3.55;;;3.60;99.90;;;;;;5035793;28;20234;-72
2023/04/03 03:35:19;;;;;;;5.03;3.40;;;3.50;99.90;;;;;;5034440;28;20282;-72
2023/04/03 03:38:05;;;;;;;4.10;3.55;;;3.30;99.90;;;;;;5037124;28;20211;-73
2023/04/03 03:40:52;;;;;;;4.60;3.55;;;3.20;99.90;;;;;;5040810;28;20207;-72
2023/04/03 03:43:38;;;;;;;4.47;3.75;;;3.20;99.90;;;;;;5034693;28;20798;-72
2023/04/03 03:46:25;;;;;;;4.30;3.80;;;3.20;99.90;;;;;;5027880;28;20328;-72
2023/04/03 03:49:11;;;;;;;5.15;3.78;;;3.10;99.90;;;;;;5030765;28;20208;-72
2023/04/03 03:51:57;;;;;;;5.90;4.18;;;3.00;99.90;;;;;;5031043;28;20760;-72
2023/04/03 03:54:42;;;;;;;5.70;4.18;;;2.90;99.90;;;;;;5026838;28;20257;-72
2023/04/03 03:57:28;;;;;;;6.07;4.22;;;2.70;99.90;;;;;;5030789;28;20211;-72
2023/04/03 04:00:15;;;;;;;4.05;3.65;;;2.60;99.90;;;;;;5029764;28;20210;-72
2023/04/03 04:03:02;;;;;;;5.75;3.80;;;2.60;99.90;;;;;;5035166;28;20350;-72
2023/04/03 04:05:48;;;;;;;5.05;3.95;;;2.60;99.90;;;;;;5025054;28;20306;-72
2023/04/03 04:08:34;;;;;;;7.25;4.53;;;2.60;99.90;;;;;;5026783;28;20207;-72
2023/04/03 04:11:20;;;;;;;4.68;4.18;;;2.70;99.90;;;;;;5031671;28;20375;-72
2023/04/03 04:14:06;;;;;;;6.22;4.40;;;2.70;99.90;;;;;;5026243;28;20653;-72
2023/04/03 04:16:51;;;;;;;8.05;4.18;;;2.70;99.90;;;;;;5029413;28;20334;-72
2023/04/03 04:19:38;;;;;;;4.82;4.10;;;2.70;99.90;;;;;;5038127;28;20207;-72
2023/04/03 04:22:24;;;;;;;7.20;4.47;;;2.60;99.90;;;;;;5029161;28;20282;-72
2023/04/03 04:25:10;;;;;;;6.90;5.10;;;2.50;99.90;;;;;;5026525;28;20297;-72
2023/04/03 04:27:56;;;;;;;5.80;4.18;;;2.50;99.90;;;;;;5026676;28;20216;-72
2023/04/03 04:30:42;;;;;;;11.68;5.35;;;2.60;99.90;;;;;;5023406;28;20223;-72
2023/04/03 04:33:27;;;;;;;4.65;4.20;;;2.60;99.90;;;;;;5021662;28;20545;-72
2023/04/03 04:36:15;;;;;;;4.45;3.55;;;2.50;99.90;;;;;;5017652;28;20210;-71
2023/04/03 04:39:00;;;;;;;5.90;4.38;;;2.20;99.90;;;;;;5025416;28;20207;-72
2023/04/03 04:41:46;;;;;;;4.72;4.00;;;2.20;99.90;;;;;;5030927;28;20226;-72
2023/04/03 04:44:32;;;;;;;12.40;8.57;;;2.10;99.90;;;;;;5024693;28;20223;-72
2023/04/03 04:47:18;;;;;;;11.32;5.00;;;2.10;99.90;;;;;;5023366;28;20222;-71
2023/04/03 04:50:04;;;;;;;5.70;4.13;;;2.10;99.90;;;;;;5031971;28;20331;-72
2023/04/03 04:52:51;;;;;;;5.60;4.00;;;2.30;99.90;;;;;;5027759;28;20247;-72
2023/04/03 04:55:36;;;;;;;4.72;3.80;;;2.40;99.90;;;;;;5022134;28;20199;-72
2023/04/03 04:58:22;;;;;;;6.32;4.47;;;2.40;99.90;;;;;;5031496;28;20298;-72
2023/04/03 05:01:09;;;;;;;6.32;4.28;;;2.50;99.90;;;;;;5024936;28;20772;-72
2023/04/03 05:03:54;;;;;;;7.13;4.72;;;2.40;99.90;;;;;;5025764;28;20301;-72
2023/04/03 05:06:41;;;;;;;8.45;4.75;;;2.30;99.90;;;;;;5041039;28;20577;-72
2023/04/03 05:09:28;;;;;;;9.77;3.88;;;2.30;99.90;;;;;;5046256;28;20772;-72
2023/04/03 05:12:13;;;;;;;9.57;6.57;;;2.40;99.90;;;;;;5044948;28;20362;-72
2023/04/03 05:14:59;;;;;;;5.68;4.80;;;2.20;99.90;;;;;;5035744;28;20234;-72
2023/04/03 05:17:45;;;;;;;11.40;8.15;;;2.20;99.90;;;;;;5034814;28;20226;-72
2023/04/03 05:20:30;;;;;;;12.27;8.35;;;2.20;99.90;;;;;;5037327;28;20207;-72
2023/04/03 05:23:16;;;;;;;14.63;8.18;;;2.30;99.90;;;;;;5042087;28;20317;-72
2023/04/03 05:26:03;;;;;;;8.57;6.30;;;2.30;99.90;;;;;;5032983;28;20226;-72
2023/04/03 05:28:49;;;;;;;10.10;7.00;;;2.30;99.90;;;;;;5045694;28;20672;-72
2023/04/03 05:31:35;;;;;;;6.20;5.18;;;2.30;99.90;;;;;;5038079;28;20210;-72
2023/04/03 05:34:20;;;;;;;7.20;4.68;;;2.40;99.90;;;;;;5031700;28;20602;-72
2023/04/03 05:37:06;;;;;;;6.60;5.10;;;2.40;99.90;;;;;;5029677;28;20381;-72
2023/04/03 05:39:52;;;;;;;10.05;6.57;;;2.40;99.90;;;;;;5024818;28;20217;-72
2023/04/03 05:42:39;;;;;;;8.15;6.22;;;2.50;99.90;;;;;;5027822;28;20271;-72
2023/04/03 05:45:24;;;;;;;8.10;6.20;;;2.50;99.90;;;;;;5015610;28;20232;-72
2023/04/03 05:48:10;;;;;;;8.15;6.50;;;2.60;99.90;;;;;;5030766;28;20278;-72
2023/04/03 05:50:56;;;;;;;13.30;7.55;;;2.70;99.90;;;;;;5028322;28;20343;-72
2023/04/03 05:53:43;;;;;;;14.98;9.55;;;2.70;99.90;;;;;;5028905;28;20314;-72
2023/04/03 05:56:29;;;;;;;8.32;6.40;;;2.60;99.90;;;;;;5035393;28;20204;-72
2023/04/03 05:59:15;;;;;;;6.18;5.45;;;2.70;99.90;;;;;;5033937;28;20205;-72
2023/04/03 06:02:01;;;;;;;6.68;5.40;;;2.70;99.90;;;;;;5029325;28;20576;-72
2023/04/03 06:04:47;;;;;;;8.32;5.60;;;2.80;99.90;;;;;;5018841;28;20568;-72
2023/04/03 06:07:32;;;;;;;8.75;5.90;;;2.70;99.90;;;;;;5024300;28;20206;-72
2023/04/03 06:10:19;;;;;;;9.10;6.32;;;2.60;99.90;;;;;;5030064;28;20500;-72
2023/04/03 06:13:06;;;;;;;11.55;5.95;;;2.70;99.90;;;;;;5036738;28;20226;-72
2023/04/03 06:15:52;;;;;;;11.50;5.50;;;2.70;99.90;;;;;;5026172;28;20331;-72
2023/04/03 06:18:38;;;;;;;7.32;5.30;;;2.80;99.90;;;;;;5033666;28;20269;-72
2023/04/03 06:21:24;;;;;;;9.30;6.05;;;2.90;99.90;;;;;;5027658;28;20199;-72
2023/04/03 06:24:13;;;;;;;9.10;6.07;;;2.90;99.90;;;;;;5022684;28;20692;-72
2023/04/03 06:26:59;;;;;;;12.10;7.28;;;3.00;99.90;;;;;;5029955;28;20302;-72
2023/04/03 06:29:45;;;;;;;10.85;6.85;;;3.10;99.90;;;;;;5032756;28;20205;-72
2023/04/03 06:32:32;;;;;;;8.65;6.22;;;3.20;99.90;;;;;;5031942;28;20231;-72
2023/04/03 06:35:17;;;;;;;7.55;5.70;;;3.20;99.90;;;;;;5019363;28;20277;-72
2023/04/03 06:38:09;;;;;;;9.05;6.50;;;3.40;99.90;;;;;;5033357;28;20235;-72
2023/04/03 06:40:54;;;;;;;14.07;7.72;;;3.40;99.90;;;;;;5026252;28;20200;-72
2023/04/03 06:43:40;;;;;;;12.32;7.22;;;3.50;99.90;;;;;;5021187;28;20222;-72
2023/04/03 06:46:27;;;;;;;7.97;5.80;;;3.60;99.90;;;;;;5032217;28;20235;-72
2023/04/03 06:49:14;;;;;;;10.07;5.65;;;3.80;99.90;;;;;;5035748;28;20566;-72
2023/04/03 06:52:00;;;;;;;7.93;5.15;;;4.00;99.90;;;;;;5024952;28;20753;-72
2023/04/03 06:54:47;;;;;;;9.50;4.57;;;4.30;99.90;;;;;;5024126;28;20215;-72
2023/04/03 06:57:32;;;;;;;8.88;4.40;;;4.60;99.90;;;;;;5025625;28;20224;-72
2023/04/03 07:00:19;;;;;;;8.60;4.55;;;4.70;99.90;;;;;;5031457;28;20209;-72
2023/04/03 07:03:04;;;;;;;9.45;3.55;;;5.00;99.90;;;;;;5023080;28;20231;-72
2023/04/03 07:05:51;;;;;;;8.07;3.92;;;5.20;99.90;;;;;;5030505;28;20223;-72
2023/04/03 07:08:37;;;;;;;9.40;3.67;;;5.40;99.90;;;;;;5032682;28;20210;-72
2023/04/03 07:11:23;;;;;;;7.22;4.00;;;5.50;99.90;;;;;;5032708;28;20270;-72
2023/04/03 07:14:08;;;;;;;5.55;4.15;;;5.60;99.90;;;;;;5022807;28;20758;-72
2023/04/03 07:16:54;;;;;;;5.28;3.97;;;5.70;99.90;;;;;;5029820;28;20199;-72
2023/04/03 07:19:40;;;;;;;6.95;4.20;;;5.80;99.90;;;;;;5027107;28;20219;-73
2023/04/03 07:22:27;;;;;;;8.30;4.15;;;5.90;99.90;;;;;;5028145;28;20248;-72
2023/04/03 07:25:13;;;;;;;6.13;3.67;;;6.00;99.90;;;;;;5027655;28;20206;-72
2023/04/03 07:27:58;;;;;;;7.68;3.83;;;6.10;99.90;;;;;;5032575;28;20262;-72
2023/04/03 07:30:45;;;;;;;8.77;3.35;;;6.10;99.90;;;;;;5028785;28;20336;-72
2023/04/03 07:33:32;;;;;;;8.48;3.83;;;6.20;99.90;;;;;;5024719;28;20708;-72
2023/04/03 07:36:21;;;;;;;5.80;3.40;;;6.20;99.90;;;;;;5030740;28;20212;-72
2023/04/03 07:39:08;;;;;;;7.93;3.40;;;6.30;99.90;;;;;;5032278;28;20204;-72
2023/04/03 07:41:55;;;;;;;4.60;2.60;;;6.40;99.90;;;;;;5031339;28;20726;-72
2023/04/03 07:44:40;;;;;;;7.75;3.55;;;6.40;99.90;;;;;;5025092;28;20708;-72
2023/04/03 07:47:26;;;;;;;10.35;3.63;;;6.40;99.90;;;;;;5028258;28;20709;-72
2023/04/03 07:50:12;;;;;;;4.90;2.50;;;6.50;99.90;;;;;;5035665;28;20309;-72
2023/04/03 07:52:57;;;;;;;6.13;2.50;;;6.50;99.90;;;;;;5023480;28;20309;-72
2023/04/03 07:55:48;;;;;;;5.85;2.50;;;6.50;99.90;;;;;;5034164;28;20208;-72
2023/04/03 07:58:33;;;;;;;5.72;2.67;;;6.50;99.90;;;;;;5028801;28;20204;-72
2023/04/03 08:01:19;;;;;;;6.25;2.80;;;6.50;99.90;;;;;;5026964;28;20720;-72
2023/04/03 08:04:06;;;;;;;5.07;2.50;;;6.60;99.90;;;;;;5030634;28;20274;-72
2023/04/03 08:06:52;;;;;;;6.88;2.40;;;6.70;99.90;;;;;;5037756;28;20693;-72
2023/04/03 08:09:37;;;;;;;2.88;2.20;;;6.70;99.90;;;;;;5028397;28;20205;-72
2023/04/03 08:12:24;;;;;;;5.63;2.40;;;6.70;99.60;;;;;;5026959;28;20224;-72
2023/04/03 08:15:10;;;;;;;11.82;1.80;;;6.70;95.40;;;;;;5026371;28;20209;-72
2023/04/03 08:17:56;;;;;;;3.83;2.05;;;6.80;94.50;;;;;;5041893;28;20196;-72
2023/04/03 08:20:42;;;;;;;4.65;1.90;;;6.80;93.80;;;;;;5032083;28;20228;-72
2023/04/03 08:23:27;;;;;;;4.88;2.03;;;6.70;90.30;;;;;;5023641;28;20243;-72
2023/04/03 08:26:15;;;;;;;8.07;1.90;;;6.60;91.20;;;;;;5033742;28;20941;-72
2023/04/03 08:29:02;;;;;;;4.68;2.28;;;6.60;87.80;;;;;;5031926;28;20208;-72
2023/04/03 08:31:49;;;;;;;8.43;2.78;;;6.70;89.00;;;;;;5032777;28;20238;-72
2023/04/03 08:34:36;;;;;;;4.68;2.05;;;6.80;84.60;;;;;;5029298;28;20212;-72
2023/04/03 08:37:22;;;;;;;5.95;2.30;;;6.80;85.70;;;;;;5039337;28;20270;-72
2023/04/03 08:40:14;;;;;;;4.53;2.10;;;6.80;81.40;;;;;;5027349;28;20229;-72
2023/04/03 08:43:14;;;;;;;2.30;1.55;;;6.80;74.50;;;;;;5020827;28;20242;-73
2023/04/03 08:46:04;;;;;;;6.45;2.40;;;6.80;72.90;;;;;;5028855;28;20229;-73
2023/04/03 08:48:51;;;;;;;7.60;1.90;;;6.90;72.50;;;;;;5026916;28;20208;-73
2023/04/03 08:51:49;;;;;;;5.20;2.42;;;7.00;73.60;;;;;;5027382;28;20621;-72
2023/04/03 08:54:39;;;;;;;3.28;1.70;;;7.00;70.80;;;;;;5033727;28;20526;-73
2023/04/03 08:57:31;;;;;;;5.30;1.73;;;7.10;74.80;;;;;;5027690;28;20323;-72
2023/04/03 09:00:20;;;;;;;2.45;1.70;;;7.10;69.90;;;;;;5028172;28;20209;-72
2023/04/03 09:03:13;;;;;;;4.10;1.70;;;7.00;66.30;;;;;;5029516;28;20232;-72
2023/04/03 09:06:04;;;;;;;7.00;2.13;;;6.90;67.50;;;;;;5041106;28;20224;-72
2023/04/03 09:08:56;;;;;;;3.38;1.98;;;6.90;66.70;;;;;;5037127;28;20673;-72
2023/04/03 09:11:56;;;;;;;4.87;1.60;;;6.80;65.20;;;;;;5026780;28;20206;-72
2023/04/03 09:14:49;;;;;;;2.63;1.85;;;6.80;65.30;;;;;;5033991;28;20970;-73
2023/04/03 09:17:43;;;;;;;3.20;2.00;;;6.90;64.20;;;;;;5033751;28;20678;-73
2023/04/03 09:20:41;;;;;;;3.53;1.67;;;6.90;63.40;;;;;;5035751;28;20692;-72
2023/04/03 09:23:31;;;;;;;7.80;2.10;;;7.10;62.50;;;;;;5031113;28;20307;-72
2023/04/03 09:26:20;;;;;;;6.47;1.75;;;7.10;59.60;;;;;;5038012;28;20348;-72
2023/04/03 09:29:08;;;;;;;6.10;2.05;;;7.20;60.50;;;;;;5047661;28;20254;-72
2023/04/03 09:31:57;;;;;;;3.15;1.55;;;7.20;60.40;;;;;;5032745;28;20620;-73
2023/04/03 09:34:44;;;;;;;5.82;2.35;;;7.20;57.30;;;;;;5027274;28;20216;-72
2023/04/03 09:37:41;;;;;;;4.57;2.10;;;7.20;56.30;;;;;;5026017;28;20205;-72
2023/04/03 09:40:38;;;;;;;3.60;1.70;;;7.30;56.10;;;;;;5027975;28;20227;-72
2023/04/03 09:43:30;;;;;;;3.67;2.03;;;7.40;55.90;;;;;;5029809;28;20481;-72
2023/04/03 09:46:29;;;;;;;2.78;1.42;;;7.40;59.10;;;;;;5028787;28;20482;-72
2023/04/03 09:49:14;;;;;;;2.43;1.37;;;7.50;55.70;;;;;;5030588;28;20243;-72
2023/04/03 09:52:18;;;;;;;4.15;1.80;;;7.50;54.50;;;;;;5028015;28;20475;-72
2023/04/03 09:55:14;;;;;;;4.50;1.50;;;7.60;52.70;;;;;;5027123;28;20794;-73
2023/04/03 09:58:02;;;;;;;3.92;1.77;;;7.60;49.70;;;;;;5035503;28;20446;-73
2023/04/03 10:00:55;;;;;;;4.22;2.00;;;7.70;52.50;;;;;;5021703;28;22225;-72
2023/04/03 10:03:46;;;;;;;5.78;1.35;;;7.70;49.40;;;;;;5026530;28;20292;-72
2023/04/03 10:06:35;;;;;;;6.35;2.90;;;7.90;48.40;;;;;;5027300;28;20228;-72
2023/04/03 10:09:23;;;;;;;4.15;1.55;;;8.10;48.60;;;;;;5031559;28;20203;-72
2023/04/03 10:12:14;;;;;;;2.87;1.50;;;8.20;48.20;;;;;;5023918;28;20537;-71
2023/04/03 10:15:01;;;;;;;4.88;1.85;;;8.40;51.80;;;;;;5029852;28;20459;-72
2023/04/03 10:17:55;;;;;;;3.50;1.60;;;8.60;42.40;;;;;;5035331;28;20207;-72
2023/04/03 10:20:46;;;;;;;4.17;2.00;;;8.50;38.80;;;;;;5025172;28;20562;-72
2023/04/03 10:23:40;;;;;;;5.17;1.83;;;8.60;46.30;;;;;;5028781;28;20496;-72
2023/04/03 10:26:36;;;;;;;5.20;1.83;;;8.70;43.10;;;;;;5034540;28;21092;-71
2023/04/03 10:29:34;;;;;;;7.07;2.13;;;8.90;42.70;;;;;;5029808;28;20458;-72
2023/04/03 10:32:34;;;;;;;2.90;1.70;;;9.00;40.40;;;;;;5025065;28;20477;-71
2023/04/03 10:35:30;;;;;;;2.87;1.47;;;9.10;40.30;;;;;;5037006;28;20441;-72
2023/04/03 10:38:22;;;;;;;3.50;2.00;;;9.40;41.70;;;;;;5024163;28;20454;-72
2023/04/03 10:41:13;;;;;;;2.97;1.53;;;9.30;32.80;;;;;;5022449;28;20479;-72
2023/04/03 10:44:09;;;;;;;4.70;1.87;;;9.20;35.50;;;;;;5021384;28;20449;-71
2023/04/03 10:47:04;;;;;;;4.90;1.57;;;9.30;35.10;;;;;;5020502;28;20458;-72
2023/04/03 10:49:59;;;;;;;5.60;1.40;;;9.50;39.00;;;;;;5045406;28;20449;-71
2023/04/03 10:52:51;;;;;;;9.23;1.80;;;9.60;37.40;;;;;;5029244;28;21027;-71
2023/04/03 10:55:43;;;;;;;2.97;1.73;;;9.70;33.20;;;;;;5035084;28;20430;-71
2023/04/03 10:58:33;;;;;;;2.13;1.20;;;9.70;33.40;;;;;;5040286;28;20485;-71
2023/04/03 11:01:22;;;;;;;3.30;1.77;;;9.60;30.90;;;;;;5031717;28;20451;-71
2023/04/03 11:04:10;;;;;;;4.60;2.00;;;9.60;33.00;;;;;;5037047;28;20426;-72
2023/04/03 11:07:01;;;;;;;3.53;1.80;;;9.50;34.20;;;;;;5022923;28;20833;-71
2023/04/03 11:09:51;;;;;;;5.07;1.90;;;9.40;32.20;;;;;;5027909;28;20460;-72
2023/04/03 11:12:42;;;;;;;4.57;1.93;;;9.30;33.00;;;;;;5029140;28;20448;-73
2023/04/03 11:15:33;;;;;;;2.57;1.70;;;9.20;36.20;;;;;;5039751;28;20952;-73
2023/04/03 11:18:23;;;;;;;4.57;1.47;;;9.20;36.20;;;;;;5038954;28;20503;-73
2023/04/03 11:21:16;;;;;;;6.47;2.17;;;9.60;40.70;;;;;;5028781;28;20446;-73
2023/04/03 11:24:07;;;;;;;5.80;1.73;;;9.60;33.10;;;;;;5033879;28;20451;-72
2023/04/03 11:26:55;;;;;;;3.80;1.70;;;9.50;34.90;;;;;;5029035;28;20471;-73
2023/04/03 11:29:42;;;;;;;6.30;2.27;;;9.50;35.00;;;;;;5023822;28;20536;-73
2023/04/03 11:32:57;;;;;;;4.17;2.10;;;9.50;33.50;;;;;;5030984;28;20504;-73
2023/04/03 11:35:45;;;;;;;4.30;1.73;;;9.40;38.50;;;;;;5005191;28;20429;-72
2023/04/03 11:38:36;;;;;;;5.33;2.13;;;9.20;34.60;;;;;;5025451;28;20453;-72
2023/04/03 11:41:27;;;;;;;8.27;1.93;;;9.10;31.70;;;;;;5027025;28;20967;-72
2023/04/03 11:44:33;;;;;;;5.90;1.93;;;9.10;34.10;;;;;;5037974;28;20469;-71
2023/04/03 11:47:46;;;;;;;4.77;2.10;;;9.00;35.10;;;;;;5031950;28;20616;-71
2023/04/03 11:50:43;;;;;;;5.47;1.90;;;9.00;35.40;;;;;;5021621;28;20450;-71
2023/04/03 11:53:38;;;;;;;2.93;2.00;;;8.90;35.90;;;;;;5024495;28;20467;-71
2023/04/03 11:56:32;;;;;;;6.20;2.10;;;8.80;32.10;;;;;;5033223;28;20447;-71
2023/04/03 11:59:23;;;;;;;3.50;1.50;;;9.00;34.20;;;;;;5038181;28;20434;-70
2023/04/03 12:02:37;;;;;;;2.97;1.70;;;9.50;37.00;;;;;;5031331;28;20993;-70
2023/04/03 12:05:29;;;;;;;4.07;1.77;;;10.00;34.60;;;;;;5042060;28;20429;-71
2023/04/03 12:08:25;;;;;;;5.50;1.80;;;10.20;33.50;;;;;;5022240;28;20466;-71
2023/04/03 12:11:29;;;;;;;4.27;2.13;;;10.20;30.80;;;;;;5020790;28;20443;-71
2023/04/03 12:14:17;;;;;;;2.53;1.37;;;10.40;32.90;;;;;;5018749;28;20463;-71
2023/04/03 12:17:03;;;;;;;5.93;2.20;;;10.40;29.60;;;;;;5030732;28;20456;-71
2023/04/03 12:19:49;;;;;;;7.27;2.20;;;10.20;29.40;;;;;;5022320;28;21310;-71
2023/04/03 12:22:34;;;;;;;3.60;1.70;;;10.00;29.70;;;;;;5022023;28;20456;-71
2023/04/03 12:25:49;;;;;;;6.40;3.10;;;9.70;30.90;;;;;;5027721;28;20471;-71
2023/04/03 12:28:42;;;;;;;3.20;1.60;;;9.50;33.20;;;;;;5025896;28;21364;-71
2023/04/03 12:31:39;;;;;;;3.03;2.00;;;9.10;31.60;;;;;;5026788;28;20529;-72
2023/04/03 12:34:47;;;;;;;2.90;1.80;;;9.10;33.30;;;;;;5032929;28;20449;-71
2023/04/03 12:37:44;;;;;;;3.23;2.27;;;9.00;33.40;;;;;;5024663;28;20449;-71
2023/04/03 12:40:37;;;;;;;5.67;2.23;;;8.90;32.00;;;;;;5022473;28;20557;-71
2023/04/03 12:43:43;;;;;;;4.30;2.00;;;8.90;32.80;;;;;;5037049;28;20464;-71
2023/04/03 12:46:37;;;;;;;4.77;1.97;;;9.10;32.30;;;;;;5019679;28;20447;-71
2023/04/03 12:49:35;;;;;;;4.20;1.73;;;9.30;29.60;;;;;;5036258;28;20510;-71
2023/04/03 12:52:30;;;;;;;3.10;1.70;;;9.40;30.70;;;;;;5028233;28;20517;-71
2023/04/03 12:55:18;;;;;;;3.47;1.80;;;9.50;29.50;;;;;;5026467;28;20611;-71
2023/04/03 12:58:16;;;;;;;3.40;1.77;;;9.70;30.90;;;;;;5034637;28;20971;-71
2023/04/03 13:01:10;;;;;;;6.80;2.27;;;9.80;31.90;;;;;;5022209;28;20456;-71
2023/04/03 13:03:58;;;;;;;6.10;2.17;;;9.90;33.70;;;;;;5032661;28;20988;-71
2023/04/03 13:06:45;;;;;;;4.10;2.17;;;9.80;31.00;;;;;;5027058;28;20450;-71
2023/04/03 13:09:32;;;;;;;3.90;1.90;;;9.80;29.90;;;;;;5030045;28;20451;-71
2023/04/03 13:12:18;;;;;;;4.07;2.10;;;9.70;29.90;;;;;;5027759;28;20477;-71
2023/04/03 13:15:14;;;;;;;3.23;2.17;;;9.70;27.90;;;;;;5025613;28;20887;-71
2023/04/03 13:18:02;;;;;;;6.13;2.33;;;9.70;26.40;;;;;;5029014;28;20508;-71
2023/04/03 13:20:49;;;;;;;4.10;1.90;;;10.10;26.40;;;;;;5024830;28;20453;-72
2023/04/03 13:23:39;;;;;;;5.10;2.50;;;10.60;25.30;;;;;;5025249;28;20470;-73
2023/04/03 13:26:28;;;;;;;3.90;1.80;;;10.70;22.00;;;;;;5026818;28;20455;-72
2023/04/03 13:29:24;;;;;;;3.57;2.07;;;10.70;24.40;;;;;;5031598;28;20810;-72
2023/04/03 13:32:19;;;;;;;4.20;1.97;;;10.40;24.10;;;;;;5021261;28;20541;-72
2023/04/03 13:35:32;;;;;;;5.70;2.20;;;10.20;23.50;;;;;;5022432;28;20507;-72
2023/04/03 13:38:26;;;;;;;3.37;2.10;;;9.90;24.80;;;;;;5027781;28;20447;-72
2023/04/03 13:41:27;;;;;;;3.93;1.80;;;9.80;23.20;;;;;;5035744;28;21025;-72
2023/04/03 13:44:28;;;;;;;2.87;1.87;;;9.70;23.30;;;;;;5013949;28;21293;-72
2023/04/03 13:47:22;;;;;;;4.03;2.10;;;10.10;21.80;;;;;;5019385;28;20501;-72
2023/04/03 13:50:17;;;;;;;4.80;2.03;;;10.60;24.80;;;;;;5026184;28;20501;-72
2023/04/03 13:53:12;;;;;;;4.50;2.00;;;11.20;21.80;;;;;;5021305;28;20486;-72
2023/04/03 13:56:08;;;;;;;2.53;1.63;;;11.50;19.40;;;;;;5023571;28;20513;-72
2023/04/03 13:58:57;;;;;;;4.33;1.83;;;11.90;21.00;;;;;;5030341;28;20446;-72
2023/04/03 14:01:48;;;;;;;3.50;1.43;;;12.30;20.10;;;;;;5025431;28;20418;-72
2023/04/03 14:04:48;;;;;;;3.23;1.73;;;12.00;19.90;;;;;;5019823;28;20449;-72
2023/04/03 14:07:33;;;;;;;4.10;1.90;;;11.90;19.80;;;;;;5025865;28;20497;-72
2023/04/03 14:10:21;;;;;;;3.83;2.00;;;11.70;20.70;;;;;;5033286;28;21021;-72
2023/04/03 14:13:07;;;;;;;3.47;2.07;;;11.80;19.90;;;;;;5019538;28;20556;-72
2023/04/03 14:15:53;;;;;;;2.83;1.70;;;11.70;19.80;;;;;;5028478;28;20451;-72
2023/04/03 14:18:38;;;;;;;3.70;2.23;;;11.40;18.80;;;;;;5027956;28;20933;-72
2023/04/03 14:21:25;;;;;;;4.30;1.80;;;11.60;20.90;;;;;;5026056;28;21000;-72
2023/04/03 14:24:11;;;;;;;2.50;1.57;;;11.80;19.70;;;;;;5031741;28;20512;-72
2023/04/03 14:26:59;;;;;;;3.63;1.83;;;12.10;18.40;;;;;;5024187;28;20449;-72
2023/04/03 14:29:45;;;;;;;3.60;1.47;;;12.20;17.30;;;;;;5024687;28;20462;-73
2023/04/03 14:32:31;;;;;;;3.23;1.57;;;12.30;16.90;;;;;;5058060;23;20847;-70
2023/04/03 14:35:18;;;;;;;2.70;1.60;;;12.20;15.00;;;;;;5068731;28;20796;-70
2023/04/03 14:38:13;;;;;;;5.97;1.93;;;12.10;16.50;;;;;;5065764;28;20422;-70
2023/04/03 14:40:59;;;;;;;5.40;1.87;;;12.00;15.30;;;;;;5066628;28;20445;-70
2023/04/03 14:43:47;;;;;;;2.73;1.40;;;12.10;15.30;;;;;;5066838;28;20442;-70
2023/04/03 14:46:37;;;;;;;4.57;2.23;;;12.20;18.40;;;;;;5068102;28;21197;-71
2023/04/03 14:49:26;;;;;;;3.20;1.73;;;12.20;17.00;;;;;;5065665;28;20617;-70